CKS9110 KACY-CYHZ
Flight info
| Callsign | CKS9110 |
|---|---|
| Flight time | 1h 32m |
| Altitude | 37000 |
| Route | BRIGS Q439 SARDI DCT CCC DCT MERIT/N0458F390 DCT BOS DCT CELTK DCT TUSKY PEGGY5 |
| Aircraft | A333/H-SDE3GHIJ2J3J5M1RVWXY/LB2D1 |
Departure
| Time | 2026-04-19 03:49 |
|---|---|
| Airport | Atlantic City International Airport (KACY) |
Arrival
| Time | 2026-04-19 05:21 |
|---|---|
| Airport | Halifax / Stanfield International Airport (CYHZ) |
| Time | Latitude | Longitude | Altitude | Speed | Heading |
|---|---|---|---|---|---|
| 2026-04-19 03:31 | 39.45047 | -74.56573 | 87 ft | 0 kts | 206° |
| 2026-04-19 03:40 | 39.45054 | -74.56569 | 87 ft | 2 kts | 219° |
| 2026-04-19 03:40 | 39.45063 | -74.56551 | 88 ft | 2 kts | 264° |
| 2026-04-19 03:40 | 39.45062 | -74.56529 | 88 ft | 2 kts | 299° |
| 2026-04-19 03:40 | 39.45061 | -74.56527 | 88 ft | 0 kts | 301° |
| 2026-04-19 03:43 | 39.45074 | -74.56554 | 88 ft | 10 kts | 301° |
| 2026-04-19 03:43 | 39.45124 | -74.56673 | 88 ft | 17 kts | 296° |
| 2026-04-19 03:43 | 39.45182 | -74.56794 | 85 ft | 14 kts | 327° |
| 2026-04-19 03:43 | 39.45266 | -74.56769 | 84 ft | 12 kts | 27° |
| 2026-04-19 03:44 | 39.45319 | -74.56794 | 87 ft | 11 kts | 301° |
| 2026-04-19 03:44 | 39.45372 | -74.56919 | 86 ft | 17 kts | 298° |
| 2026-04-19 03:44 | 39.45433 | -74.57069 | 85 ft | 21 kts | 298° |
| 2026-04-19 03:44 | 39.45507 | -74.57249 | 85 ft | 24 kts | 298° |
| 2026-04-19 03:45 | 39.45589 | -74.57445 | 87 ft | 25 kts | 298° |
| 2026-04-19 03:45 | 39.45670 | -74.57644 | 86 ft | 25 kts | 298° |
| 2026-04-19 03:45 | 39.45754 | -74.57847 | 84 ft | 26 kts | 298° |
| 2026-04-19 03:45 | 39.45837 | -74.58048 | 86 ft | 26 kts | 298° |
| 2026-04-19 03:46 | 39.45921 | -74.58252 | 83 ft | 26 kts | 298° |
| 2026-04-19 03:46 | 39.46005 | -74.58456 | 83 ft | 26 kts | 298° |
| 2026-04-19 03:46 | 39.46091 | -74.58663 | 67 ft | 26 kts | 298° |
| 2026-04-19 03:46 | 39.46176 | -74.58873 | 68 ft | 26 kts | 298° |
| 2026-04-19 03:47 | 39.46241 | -74.59030 | 67 ft | 12 kts | 298° |
| 2026-04-19 03:47 | 39.46272 | -74.59101 | 66 ft | 11 kts | 305° |
| 2026-04-19 03:47 | 39.46367 | -74.59104 | 69 ft | 16 kts | 28° |
| 2026-04-19 03:47 | 39.46400 | -74.59051 | 68 ft | 6 kts | 83° |
| 2026-04-19 03:48 | 39.46390 | -74.59014 | 73 ft | 1 kts | 116° |
| 2026-04-19 03:48 | 39.46371 | -74.58965 | 73 ft | 25 kts | 116° |
| 2026-04-19 03:48 | 39.46194 | -74.58535 | 85 ft | 81 kts | 118° |
| 2026-04-19 03:48 | 39.45851 | -74.57704 | 85 ft | 127 kts | 118° |
| 2026-04-19 03:49 | 39.45374 | -74.56546 | 175 ft | 157 kts | 117° |
| 2026-04-19 03:49 | 39.44882 | -74.55326 | 844 ft | 153 kts | 119° |
| 2026-04-19 03:49 | 39.44386 | -74.54114 | 1487 ft | 152 kts | 127° |
| 2026-04-19 03:49 | 39.43865 | -74.52879 | 1887 ft | 164 kts | 127° |
| 2026-04-19 03:50 | 39.43324 | -74.51459 | 2069 ft | 191 kts | 117° |
| 2026-04-19 03:50 | 39.43156 | -74.49614 | 2247 ft | 223 kts | 96° |
| 2026-04-19 03:50 | 39.43376 | -74.47500 | 2409 ft | 251 kts | 84° |
| 2026-04-19 03:50 | 39.43878 | -74.45218 | 2683 ft | 274 kts | 77° |
| 2026-04-19 03:51 | 39.44548 | -74.42849 | 3231 ft | 285 kts | 73° |
| 2026-04-19 03:51 | 39.45277 | -74.40438 | 3915 ft | 289 kts | 72° |
| 2026-04-19 03:51 | 39.46007 | -74.37996 | 4640 ft | 293 kts | 72° |
| 2026-04-19 03:51 | 39.46724 | -74.35501 | 5336 ft | 298 kts | 71° |
| 2026-04-19 03:52 | 39.47419 | -74.32973 | 6114 ft | 300 kts | 71° |
| 2026-04-19 03:52 | 39.48104 | -74.30402 | 6828 ft | 304 kts | 71° |
| 2026-04-19 03:52 | 39.48783 | -74.27794 | 7600 ft | 307 kts | 71° |
| 2026-04-19 03:52 | 39.49459 | -74.25172 | 8417 ft | 308 kts | 71° |
| 2026-04-19 03:53 | 39.50131 | -74.22558 | 9197 ft | 311 kts | 71° |
| 2026-04-19 03:53 | 39.50816 | -74.19887 | 9975 ft | 314 kts | 71° |
| 2026-04-19 03:53 | 39.51519 | -74.17151 | 10440 ft | 328 kts | 71° |
| 2026-04-19 03:53 | 39.52433 | -74.14353 | 10688 ft | 347 kts | 58° |
| 2026-04-19 03:54 | 39.53785 | -74.11657 | 10929 ft | 366 kts | 53° |
| 2026-04-19 03:54 | 39.55351 | -74.08965 | 11222 ft | 381 kts | 50° |
| 2026-04-19 03:54 | 39.57048 | -74.06281 | 11704 ft | 388 kts | 48° |
| 2026-04-19 03:54 | 39.58803 | -74.03596 | 12289 ft | 393 kts | 48° |
| 2026-04-19 03:55 | 39.60588 | -74.00881 | 12878 ft | 398 kts | 48° |
| 2026-04-19 03:55 | 39.62383 | -73.98133 | 13570 ft | 398 kts | 48° |
| 2026-04-19 03:55 | 39.64171 | -73.95369 | 14186 ft | 400 kts | 49° |
| 2026-04-19 03:55 | 39.65964 | -73.92574 | 14704 ft | 404 kts | 49° |
| 2026-04-19 03:56 | 39.67766 | -73.89747 | 15233 ft | 408 kts | 49° |
| 2026-04-19 03:56 | 39.69575 | -73.86899 | 15772 ft | 411 kts | 49° |
| 2026-04-19 03:56 | 39.71400 | -73.84020 | 16295 ft | 414 kts | 49° |
| 2026-04-19 03:56 | 39.73236 | -73.81120 | 16831 ft | 417 kts | 49° |
| 2026-04-19 03:57 | 39.75086 | -73.78197 | 17349 ft | 420 kts | 49° |
| 2026-04-19 03:57 | 39.76927 | -73.75285 | 17828 ft | 425 kts | 49° |
| 2026-04-19 03:57 | 39.78815 | -73.72299 | 18247 ft | 430 kts | 49° |
| 2026-04-19 03:57 | 39.80720 | -73.69283 | 18674 ft | 432 kts | 49° |
| 2026-04-19 03:58 | 39.82633 | -73.66251 | 19111 ft | 435 kts | 49° |
| 2026-04-19 03:58 | 39.84555 | -73.63201 | 19610 ft | 435 kts | 49° |
| 2026-04-19 03:58 | 39.86469 | -73.60161 | 20146 ft | 434 kts | 49° |
| 2026-04-19 03:58 | 39.88387 | -73.57110 | 20566 ft | 437 kts | 49° |
| 2026-04-19 03:59 | 39.90435 | -73.54167 | 20972 ft | 439 kts | 43° |
| 2026-04-19 03:59 | 39.92626 | -73.51376 | 21368 ft | 442 kts | 42° |
| 2026-04-19 03:59 | 39.94877 | -73.48631 | 21790 ft | 444 kts | 41° |
| 2026-04-19 03:59 | 39.97175 | -73.45898 | 22151 ft | 448 kts | 40° |
| 2026-04-19 04:00 | 39.99495 | -73.43171 | 22540 ft | 450 kts | 40° |
| 2026-04-19 04:00 | 40.01833 | -73.40427 | 22955 ft | 453 kts | 40° |
| 2026-04-19 04:00 | 40.04179 | -73.37667 | 23362 ft | 455 kts | 40° |
| 2026-04-19 04:00 | 40.06535 | -73.34886 | 23734 ft | 458 kts | 40° |
| 2026-04-19 04:01 | 40.08898 | -73.32088 | 24062 ft | 460 kts | 40° |
| 2026-04-19 04:01 | 40.13617 | -73.26477 | 24795 ft | 462 kts | 40° |
| 2026-04-19 04:01 | 40.15999 | -73.23637 | 25105 ft | 465 kts | 40° |
| 2026-04-19 04:02 | 40.18395 | -73.20776 | 25420 ft | 467 kts | 40° |
| 2026-04-19 04:02 | 40.20802 | -73.17901 | 25738 ft | 469 kts | 40° |
| 2026-04-19 04:02 | 40.23215 | -73.15015 | 26046 ft | 471 kts | 40° |
| 2026-04-19 04:02 | 40.25637 | -73.12116 | 26357 ft | 473 kts | 40° |
| 2026-04-19 04:03 | 40.28073 | -73.09199 | 26667 ft | 475 kts | 40° |
| 2026-04-19 04:03 | 40.30515 | -73.06272 | 26972 ft | 477 kts | 40° |
| 2026-04-19 04:03 | 40.32971 | -73.03325 | 27238 ft | 480 kts | 40° |
| 2026-04-19 04:03 | 40.35439 | -73.00362 | 27526 ft | 482 kts | 40° |
| 2026-04-19 04:04 | 40.37916 | -72.97385 | 27831 ft | 484 kts | 40° |
| 2026-04-19 04:04 | 40.40401 | -72.94395 | 28125 ft | 486 kts | 40° |
| 2026-04-19 04:04 | 40.42888 | -72.91397 | 28503 ft | 485 kts | 40° |
| 2026-04-19 04:04 | 40.45344 | -72.88435 | 28786 ft | 487 kts | 40° |
| 2026-04-19 04:05 | 40.47908 | -72.85522 | 29041 ft | 487 kts | 34° |
| 2026-04-19 04:05 | 40.50735 | -72.83087 | 29303 ft | 486 kts | 25° |
| 2026-04-19 04:05 | 40.53818 | -72.81284 | 29554 ft | 484 kts | 15° |
| 2026-04-19 04:05 | 40.57071 | -72.80222 | 29822 ft | 481 kts | 5° |
| 2026-04-19 04:06 | 40.60398 | -72.79855 | 30091 ft | 479 kts | 359° |
| 2026-04-19 04:06 | 40.63741 | -72.79735 | 30309 ft | 480 kts | 357° |
| 2026-04-19 04:06 | 40.67084 | -72.79727 | 30546 ft | 481 kts | 356° |
| 2026-04-19 04:06 | 40.70436 | -72.79765 | 30783 ft | 482 kts | 356° |
| 2026-04-19 04:07 | 40.73796 | -72.79812 | 31055 ft | 482 kts | 356° |
| 2026-04-19 04:07 | 40.77146 | -72.79850 | 31411 ft | 480 kts | 356° |
| 2026-04-19 04:07 | 40.80445 | -72.79873 | 31764 ft | 478 kts | 356° |
| 2026-04-19 04:07 | 40.83769 | -72.79885 | 32117 ft | 476 kts | 356° |
| 2026-04-19 04:08 | 40.87081 | -72.79899 | 32437 ft | 474 kts | 355° |
| 2026-04-19 04:08 | 40.90360 | -72.80256 | 32761 ft | 470 kts | 348° |
| 2026-04-19 04:08 | 40.93540 | -72.81181 | 33015 ft | 466 kts | 339° |
| 2026-04-19 04:08 | 40.96547 | -72.82712 | 33305 ft | 461 kts | 331° |
| 2026-04-19 04:09 | 40.99371 | -72.84588 | 33620 ft | 459 kts | 329° |
| 2026-04-19 04:09 | 41.02208 | -72.86622 | 33949 ft | 457 kts | 328° |
| 2026-04-19 04:09 | 41.04938 | -72.88658 | 34203 ft | 455 kts | 327° |
| 2026-04-19 04:09 | 41.07685 | -72.90741 | 34431 ft | 455 kts | 327° |
| 2026-04-19 04:10 | 41.10430 | -72.92828 | 34638 ft | 455 kts | 327° |
| 2026-04-19 04:10 | 41.13173 | -72.94908 | 34850 ft | 455 kts | 327° |
| 2026-04-19 04:10 | 41.15927 | -72.96986 | 35027 ft | 455 kts | 327° |
| 2026-04-19 04:10 | 41.18690 | -72.99065 | 35220 ft | 455 kts | 327° |
| 2026-04-19 04:11 | 41.21453 | -73.01131 | 35430 ft | 455 kts | 328° |
| 2026-04-19 04:11 | 41.24346 | -73.02910 | 35642 ft | 459 kts | 336° |
| 2026-04-19 04:11 | 41.27406 | -73.04150 | 35837 ft | 463 kts | 344° |
| 2026-04-19 04:11 | 41.30608 | -73.04755 | 36037 ft | 467 kts | 353° |
| 2026-04-19 04:12 | 41.33871 | -73.04648 | 36232 ft | 472 kts | 3° |
| 2026-04-19 04:12 | 41.37074 | -73.03809 | 36403 ft | 477 kts | 13° |
| 2026-04-19 04:12 | 41.40187 | -73.02211 | 36547 ft | 483 kts | 24° |
| 2026-04-19 04:12 | 41.43072 | -72.99887 | 36742 ft | 486 kts | 34° |
| 2026-04-19 04:13 | 41.45625 | -72.96909 | 36929 ft | 489 kts | 45° |
| 2026-04-19 04:13 | 41.47771 | -72.93378 | 37018 ft | 492 kts | 53° |
| 2026-04-19 04:13 | 41.50882 | -72.87051 | 37027 ft | 490 kts | 57° |
| 2026-04-19 04:14 | 41.54422 | -72.79292 | 37026 ft | 489 kts | 57° |
| 2026-04-19 04:14 | 41.57953 | -72.71531 | 37027 ft | 489 kts | 57° |
| 2026-04-19 04:15 | 41.61513 | -72.63794 | 37018 ft | 489 kts | 57° |
| 2026-04-19 04:15 | 41.65092 | -72.56049 | 37018 ft | 490 kts | 57° |
| 2026-04-19 04:16 | 41.68654 | -72.48333 | 37019 ft | 490 kts | 57° |
| 2026-04-19 04:16 | 41.72234 | -72.40552 | 37020 ft | 491 kts | 57° |
| 2026-04-19 04:17 | 41.75811 | -72.32754 | 37019 ft | 491 kts | 57° |
| 2026-04-19 04:17 | 41.79384 | -72.24944 | 37021 ft | 491 kts | 57° |
| 2026-04-19 04:18 | 41.82957 | -72.17115 | 37037 ft | 493 kts | 57° |
| 2026-04-19 04:18 | 41.86508 | -72.09313 | 37027 ft | 493 kts | 57° |
| 2026-04-19 04:19 | 41.90084 | -72.01436 | 37029 ft | 494 kts | 57° |
| 2026-04-19 04:19 | 41.93650 | -71.93559 | 37031 ft | 494 kts | 57° |
| 2026-04-19 04:20 | 41.97218 | -71.85661 | 37031 ft | 495 kts | 58° |
| 2026-04-19 04:20 | 42.00785 | -71.77741 | 37036 ft | 496 kts | 58° |
| 2026-04-19 04:21 | 42.04357 | -71.69789 | 37039 ft | 496 kts | 58° |
| 2026-04-19 04:21 | 42.07919 | -71.61837 | 37036 ft | 496 kts | 58° |
| 2026-04-19 04:22 | 42.11456 | -71.53921 | 37030 ft | 496 kts | 58° |
| 2026-04-19 04:22 | 42.15017 | -71.45930 | 37042 ft | 497 kts | 58° |
| 2026-04-19 04:23 | 42.18569 | -71.37937 | 37045 ft | 497 kts | 58° |
| 2026-04-19 04:23 | 42.22119 | -71.29926 | 37043 ft | 497 kts | 59° |
| 2026-04-19 04:24 | 42.25665 | -71.21906 | 37045 ft | 497 kts | 59° |
| 2026-04-19 04:24 | 42.29185 | -71.13921 | 37045 ft | 497 kts | 59° |
| 2026-04-19 04:25 | 42.32670 | -71.05837 | 37045 ft | 498 kts | 64° |
| 2026-04-19 04:25 | 42.34785 | -70.96991 | 37043 ft | 495 kts | 84° |
| 2026-04-19 04:26 | 42.34969 | -70.92362 | 37047 ft | 492 kts | 95° |
| 2026-04-19 04:26 | 42.34708 | -70.87747 | 37031 ft | 492 kts | 98° |
| 2026-04-19 04:26 | 42.33840 | -70.78588 | 37047 ft | 490 kts | 100° |
| 2026-04-19 04:27 | 42.32847 | -70.69477 | 37050 ft | 490 kts | 101° |
| 2026-04-19 04:27 | 42.31881 | -70.60420 | 37052 ft | 488 kts | 100° |
| 2026-04-19 04:28 | 42.30942 | -70.51367 | 37044 ft | 486 kts | 100° |
| 2026-04-19 04:28 | 42.30008 | -70.42323 | 37053 ft | 486 kts | 100° |
| 2026-04-19 04:29 | 42.29066 | -70.33273 | 37048 ft | 486 kts | 100° |
| 2026-04-19 04:29 | 42.28117 | -70.24226 | 37048 ft | 486 kts | 100° |
| 2026-04-19 04:30 | 42.27506 | -70.15132 | 37046 ft | 488 kts | 89° |
| 2026-04-19 04:30 | 42.28804 | -70.06227 | 37037 ft | 489 kts | 68° |
| 2026-04-19 04:31 | 42.31991 | -69.98115 | 37031 ft | 490 kts | 59° |
| 2026-04-19 04:31 | 42.35488 | -69.90191 | 37031 ft | 491 kts | 59° |
| 2026-04-19 04:32 | 42.38975 | -69.82249 | 37029 ft | 490 kts | 59° |
| 2026-04-19 04:32 | 42.42430 | -69.74339 | 37034 ft | 488 kts | 59° |
| 2026-04-19 04:33 | 42.45859 | -69.66463 | 37031 ft | 489 kts | 59° |
| 2026-04-19 04:33 | 42.49307 | -69.58516 | 37031 ft | 489 kts | 59° |
| 2026-04-19 04:34 | 42.52744 | -69.50573 | 37026 ft | 488 kts | 59° |
| 2026-04-19 04:34 | 42.56169 | -69.42637 | 37033 ft | 486 kts | 59° |
| 2026-04-19 04:35 | 42.59585 | -69.34703 | 37028 ft | 487 kts | 59° |
| 2026-04-19 04:35 | 42.62996 | -69.26758 | 37028 ft | 487 kts | 59° |
| 2026-04-19 04:36 | 42.66403 | -69.18798 | 37020 ft | 487 kts | 59° |
| 2026-04-19 04:36 | 42.69771 | -69.10909 | 37029 ft | 484 kts | 59° |
| 2026-04-19 04:37 | 42.73143 | -69.02992 | 37029 ft | 483 kts | 59° |
| 2026-04-19 04:37 | 42.76506 | -68.95073 | 37028 ft | 483 kts | 59° |
| 2026-04-19 04:38 | 42.79866 | -68.87139 | 37029 ft | 483 kts | 59° |
| 2026-04-19 04:38 | 42.83211 | -68.79219 | 37025 ft | 481 kts | 59° |
| 2026-04-19 04:39 | 42.86530 | -68.71339 | 37025 ft | 478 kts | 59° |
| 2026-04-19 04:39 | 42.89835 | -68.63471 | 37023 ft | 478 kts | 59° |
| 2026-04-19 04:40 | 42.93136 | -68.55592 | 37023 ft | 478 kts | 59° |
| 2026-04-19 04:40 | 42.96432 | -68.47701 | 37022 ft | 477 kts | 59° |
| 2026-04-19 04:41 | 42.99709 | -68.39836 | 37024 ft | 475 kts | 59° |
| 2026-04-19 04:41 | 43.02955 | -68.32026 | 37023 ft | 475 kts | 59° |
| 2026-04-19 04:42 | 43.06218 | -68.24153 | 37023 ft | 475 kts | 59° |
| 2026-04-19 04:42 | 43.09477 | -68.16268 | 37025 ft | 476 kts | 59° |
| 2026-04-19 04:43 | 43.12734 | -68.08366 | 37022 ft | 476 kts | 59° |
| 2026-04-19 04:43 | 43.15960 | -68.00518 | 37022 ft | 476 kts | 59° |
| 2026-04-19 04:44 | 43.19203 | -67.92606 | 37022 ft | 476 kts | 59° |
| 2026-04-19 04:44 | 43.22418 | -67.84742 | 37024 ft | 470 kts | 58° |
| 2026-04-19 04:45 | 43.25607 | -67.76919 | 37029 ft | 469 kts | 58° |
| 2026-04-19 04:45 | 43.28789 | -67.69093 | 37028 ft | 470 kts | 59° |
| 2026-04-19 04:46 | 43.31967 | -67.61260 | 37027 ft | 469 kts | 59° |
| 2026-04-19 04:46 | 43.35141 | -67.53408 | 37029 ft | 469 kts | 58° |
| 2026-04-19 04:47 | 43.38289 | -67.45600 | 37029 ft | 470 kts | 59° |
| 2026-04-19 04:47 | 43.41456 | -67.37726 | 37034 ft | 470 kts | 58° |
| 2026-04-19 04:48 | 43.44616 | -67.29851 | 37031 ft | 470 kts | 58° |
| 2026-04-19 04:48 | 43.47771 | -67.21959 | 37037 ft | 470 kts | 59° |
| 2026-04-19 04:49 | 43.50918 | -67.14069 | 37038 ft | 469 kts | 59° |
| 2026-04-19 04:49 | 43.54037 | -67.06230 | 37036 ft | 469 kts | 59° |
| 2026-04-19 04:50 | 43.57077 | -66.98277 | 37041 ft | 470 kts | 63° |
| 2026-04-19 04:50 | 43.59711 | -66.90001 | 37043 ft | 471 kts | 65° |
| 2026-04-19 04:51 | 43.62317 | -66.81700 | 37041 ft | 472 kts | 65° |
| 2026-04-19 04:51 | 43.64927 | -66.73398 | 37045 ft | 468 kts | 63° |
| 2026-04-19 04:52 | 43.67502 | -66.65192 | 37054 ft | 464 kts | 63° |
| 2026-04-19 04:52 | 43.70061 | -66.57027 | 37059 ft | 463 kts | 65° |
| 2026-04-19 04:53 | 43.72601 | -66.48897 | 37067 ft | 464 kts | 64° |
| 2026-04-19 04:53 | 43.75158 | -66.40686 | 37077 ft | 465 kts | 64° |
| 2026-04-19 04:54 | 43.77709 | -66.32470 | 37086 ft | 465 kts | 65° |
| 2026-04-19 04:54 | 43.80253 | -66.24240 | 37089 ft | 465 kts | 65° |
| 2026-04-19 04:55 | 43.82787 | -66.16021 | 37093 ft | 461 kts | 64° |
| 2026-04-19 04:55 | 43.85297 | -66.07855 | 37091 ft | 461 kts | 65° |
| 2026-04-19 04:56 | 43.87804 | -65.99673 | 37091 ft | 461 kts | 65° |
| 2026-04-19 04:56 | 43.90305 | -65.91485 | 37095 ft | 461 kts | 65° |
| 2026-04-19 04:57 | 43.92792 | -65.83325 | 36926 ft | 466 kts | 65° |
| 2026-04-19 04:57 | 43.94053 | -65.79174 | 36203 ft | 468 kts | 65° |
| 2026-04-19 04:57 | 43.95325 | -65.74985 | 35199 ft | 474 kts | 65° |
| 2026-04-19 04:58 | 43.96610 | -65.70745 | 34309 ft | 477 kts | 66° |
| 2026-04-19 04:58 | 43.97896 | -65.66492 | 33408 ft | 478 kts | 65° |
| 2026-04-19 04:58 | 43.99178 | -65.62241 | 32646 ft | 476 kts | 66° |
| 2026-04-19 04:58 | 44.00451 | -65.58013 | 31899 ft | 474 kts | 66° |
| 2026-04-19 04:59 | 44.01719 | -65.53795 | 31121 ft | 473 kts | 66° |
| 2026-04-19 04:59 | 44.02987 | -65.49574 | 30348 ft | 472 kts | 66° |
| 2026-04-19 04:59 | 44.04239 | -65.45396 | 29769 ft | 465 kts | 67° |
| 2026-04-19 04:59 | 44.05469 | -65.41284 | 29241 ft | 457 kts | 67° |
| 2026-04-19 05:00 | 44.06677 | -65.37240 | 28707 ft | 449 kts | 67° |
| 2026-04-19 05:00 | 44.07864 | -65.33260 | 28186 ft | 442 kts | 67° |
| 2026-04-19 05:00 | 44.09032 | -65.29340 | 27673 ft | 437 kts | 67° |
| 2026-04-19 05:00 | 44.10192 | -65.25442 | 27136 ft | 434 kts | 67° |
| 2026-04-19 05:01 | 44.11342 | -65.21569 | 26629 ft | 432 kts | 67° |
| 2026-04-19 05:01 | 44.12485 | -65.17716 | 26101 ft | 430 kts | 68° |
| 2026-04-19 05:01 | 44.13623 | -65.13873 | 25570 ft | 428 kts | 68° |
| 2026-04-19 05:01 | 44.14755 | -65.10045 | 25036 ft | 426 kts | 68° |
| 2026-04-19 05:02 | 44.15879 | -65.06238 | 24504 ft | 425 kts | 68° |
| 2026-04-19 05:02 | 44.16999 | -65.02438 | 23980 ft | 424 kts | 68° |
| 2026-04-19 05:02 | 44.18102 | -64.98691 | 23411 ft | 423 kts | 69° |
| 2026-04-19 05:02 | 44.19216 | -64.94899 | 22836 ft | 421 kts | 69° |
| 2026-04-19 05:03 | 44.20320 | -64.91136 | 22307 ft | 418 kts | 68° |
| 2026-04-19 05:03 | 44.21046 | -64.88660 | 21949 ft | 416 kts | 69° |
| 2026-04-19 05:03 | 44.22135 | -64.84938 | 21420 ft | 414 kts | 69° |
| 2026-04-19 05:03 | 44.23219 | -64.81229 | 20887 ft | 412 kts | 69° |
| 2026-04-19 05:04 | 44.24296 | -64.77539 | 20366 ft | 410 kts | 69° |
| 2026-04-19 05:04 | 44.25369 | -64.73858 | 19838 ft | 408 kts | 69° |
| 2026-04-19 05:04 | 44.26437 | -64.70189 | 19301 ft | 407 kts | 69° |
| 2026-04-19 05:04 | 44.27498 | -64.66537 | 18776 ft | 405 kts | 70° |
| 2026-04-19 05:05 | 44.28556 | -64.62891 | 18202 ft | 404 kts | 69° |
| 2026-04-19 05:05 | 44.29605 | -64.59271 | 17644 ft | 400 kts | 70° |
| 2026-04-19 05:05 | 44.30644 | -64.55680 | 17142 ft | 397 kts | 70° |
| 2026-04-19 05:05 | 44.31670 | -64.52129 | 16572 ft | 393 kts | 70° |
| 2026-04-19 05:06 | 44.32693 | -64.48581 | 15906 ft | 394 kts | 70° |
| 2026-04-19 05:06 | 44.33714 | -64.45034 | 15363 ft | 392 kts | 70° |
| 2026-04-19 05:06 | 44.34725 | -64.41522 | 14839 ft | 388 kts | 70° |
| 2026-04-19 05:06 | 44.35727 | -64.38032 | 14325 ft | 386 kts | 70° |
| 2026-04-19 05:07 | 44.36708 | -64.34614 | 13773 ft | 383 kts | 70° |
| 2026-04-19 05:07 | 44.37696 | -64.31166 | 13222 ft | 380 kts | 70° |
| 2026-04-19 05:07 | 44.38673 | -64.27752 | 12699 ft | 376 kts | 70° |
| 2026-04-19 05:07 | 44.39638 | -64.24374 | 12204 ft | 372 kts | 71° |
| 2026-04-19 05:08 | 44.40596 | -64.21020 | 11680 ft | 370 kts | 70° |
| 2026-04-19 05:08 | 44.43506 | -64.15286 | 11107 ft | 358 kts | 37° |
| 2026-04-19 05:08 | 44.45579 | -64.13491 | 11034 ft | 344 kts | 30° |
| 2026-04-19 05:09 | 44.47645 | -64.11920 | 10901 ft | 332 kts | 29° |
| 2026-04-19 05:09 | 44.49651 | -64.10421 | 10744 ft | 322 kts | 29° |
| 2026-04-19 05:09 | 44.51598 | -64.08960 | 10606 ft | 313 kts | 29° |
| 2026-04-19 05:09 | 44.53496 | -64.07529 | 10436 ft | 306 kts | 29° |
| 2026-04-19 05:10 | 44.55383 | -64.06100 | 10029 ft | 310 kts | 29° |
| 2026-04-19 05:10 | 44.57285 | -64.04656 | 9614 ft | 310 kts | 29° |
| 2026-04-19 05:10 | 44.59183 | -64.03218 | 9220 ft | 310 kts | 29° |
| 2026-04-19 05:10 | 44.61082 | -64.01781 | 8846 ft | 309 kts | 29° |
| 2026-04-19 05:11 | 44.62971 | -64.00344 | 8479 ft | 308 kts | 30° |
| 2026-04-19 05:11 | 44.64821 | -63.98931 | 8092 ft | 305 kts | 30° |
| 2026-04-19 05:11 | 44.66683 | -63.97509 | 7599 ft | 305 kts | 30° |
| 2026-04-19 05:11 | 44.68545 | -63.96084 | 7134 ft | 304 kts | 30° |
| 2026-04-19 05:12 | 44.70397 | -63.94667 | 6672 ft | 303 kts | 30° |
| 2026-04-19 05:12 | 44.72241 | -63.93255 | 6181 ft | 301 kts | 30° |
| 2026-04-19 05:12 | 44.74082 | -63.91845 | 5770 ft | 299 kts | 30° |
| 2026-04-19 05:12 | 44.75884 | -63.90465 | 5621 ft | 290 kts | 30° |
| 2026-04-19 05:13 | 44.77628 | -63.89129 | 5514 ft | 281 kts | 31° |
| 2026-04-19 05:13 | 44.79314 | -63.87836 | 5420 ft | 271 kts | 31° |
| 2026-04-19 05:13 | 44.80942 | -63.86584 | 5316 ft | 263 kts | 31° |
| 2026-04-19 05:13 | 44.82538 | -63.85355 | 5115 ft | 260 kts | 31° |
| 2026-04-19 05:14 | 44.84119 | -63.84137 | 4868 ft | 258 kts | 31° |
| 2026-04-19 05:14 | 44.85692 | -63.82925 | 4624 ft | 257 kts | 31° |
| 2026-04-19 05:14 | 44.87256 | -63.81721 | 4386 ft | 255 kts | 31° |
| 2026-04-19 05:14 | 44.88809 | -63.80524 | 4151 ft | 254 kts | 31° |
| 2026-04-19 05:15 | 44.90329 | -63.79353 | 4070 ft | 242 kts | 31° |
| 2026-04-19 05:15 | 44.91763 | -63.78242 | 4032 ft | 229 kts | 34° |
| 2026-04-19 05:15 | 44.93057 | -63.77078 | 3941 ft | 218 kts | 39° |
| 2026-04-19 05:15 | 44.94291 | -63.75879 | 3751 ft | 213 kts | 40° |
| 2026-04-19 05:16 | 44.95500 | -63.74686 | 3482 ft | 211 kts | 41° |
| 2026-04-19 05:16 | 44.96696 | -63.73498 | 3241 ft | 209 kts | 43° |
| 2026-04-19 05:16 | 44.97637 | -63.72055 | 3025 ft | 189 kts | 79° |
| 2026-04-19 05:16 | 44.97729 | -63.70340 | 3020 ft | 170 kts | 108° |
| 2026-04-19 05:17 | 44.97431 | -63.68762 | 3013 ft | 165 kts | 119° |
| 2026-04-19 05:17 | 44.96988 | -63.67278 | 3008 ft | 162 kts | 126° |
| 2026-04-19 05:17 | 44.96400 | -63.65939 | 2938 ft | 160 kts | 131° |
| 2026-04-19 05:17 | 44.95778 | -63.64647 | 2748 ft | 158 kts | 131° |
| 2026-04-19 05:18 | 44.95179 | -63.63407 | 2515 ft | 147 kts | 132° |
| 2026-04-19 05:18 | 44.94623 | -63.62289 | 2328 ft | 132 kts | 132° |
| 2026-04-19 05:18 | 44.94103 | -63.61244 | 2133 ft | 128 kts | 131° |
| 2026-04-19 05:18 | 44.93591 | -63.60214 | 1954 ft | 128 kts | 131° |
| 2026-04-19 05:19 | 44.93077 | -63.59185 | 1775 ft | 128 kts | 130° |
| 2026-04-19 05:19 | 44.92569 | -63.58161 | 1602 ft | 127 kts | 130° |
| 2026-04-19 05:19 | 44.92063 | -63.57143 | 1417 ft | 126 kts | 129° |
| 2026-04-19 05:19 | 44.91558 | -63.56129 | 1238 ft | 126 kts | 128° |
| 2026-04-19 05:20 | 44.91066 | -63.55140 | 1057 ft | 124 kts | 126° |
| 2026-04-19 05:20 | 44.90577 | -63.54152 | 891 ft | 122 kts | 125° |
| 2026-04-19 05:20 | 44.90090 | -63.53171 | 713 ft | 121 kts | 126° |
| 2026-04-19 05:20 | 44.89606 | -63.52213 | 595 ft | 121 kts | 127° |
| 2026-04-19 05:21 | 44.89122 | -63.51239 | 464 ft | 119 kts | 126° |
| 2026-04-19 05:21 | 44.88738 | -63.50472 | 461 ft | 59 kts | 125° |
| 2026-04-19 05:21 | 44.88565 | -63.50128 | 460 ft | 38 kts | 125° |
| 2026-04-19 05:21 | 44.88441 | -63.49877 | 460 ft | 17 kts | 127° |
| 2026-04-19 05:22 | 44.88366 | -63.49850 | 463 ft | 11 kts | 203° |
| 2026-04-19 05:22 | 44.88320 | -63.49894 | 463 ft | 0 kts | 215° |
| 2026-04-19 05:22 | 44.88310 | -63.49904 | 463 ft | 3 kts | 215° |
| 2026-04-19 05:22 | 44.88303 | -63.49910 | 463 ft | 3 kts | 215° |
| 2026-04-19 05:23 | 44.88285 | -63.49938 | 463 ft | 7 kts | 243° |
| 2026-04-19 05:23 | 44.88303 | -63.50023 | 463 ft | 11 kts | 304° |
| 2026-04-19 05:23 | 44.88350 | -63.50122 | 463 ft | 13 kts | 303° |
| 2026-04-19 05:23 | 44.88368 | -63.50264 | 462 ft | 16 kts | 263° |
| 2026-04-19 05:24 | 44.88356 | -63.50425 | 462 ft | 17 kts | 264° |
| 2026-04-19 05:24 | 44.88342 | -63.50605 | 461 ft | 20 kts | 264° |
| 2026-04-19 05:24 | 44.88326 | -63.50805 | 462 ft | 21 kts | 263° |
| 2026-04-19 05:24 | 44.88318 | -63.50994 | 461 ft | 17 kts | 281° |
| 2026-04-19 05:25 | 44.88377 | -63.51134 | 462 ft | 17 kts | 305° |
| 2026-04-19 05:25 | 44.88391 | -63.51245 | 461 ft | 13 kts | 233° |
| 2026-04-19 05:25 | 44.88309 | -63.51335 | 462 ft | 16 kts | 216° |
| 2026-04-19 05:25 | 44.88214 | -63.51428 | 462 ft | 17 kts | 214° |
| 2026-04-19 05:26 | 44.88108 | -63.51532 | 462 ft | 20 kts | 215° |
| 2026-04-19 05:26 | 44.87993 | -63.51645 | 463 ft | 20 kts | 214° |
| 2026-04-19 05:26 | 44.87878 | -63.51758 | 463 ft | 20 kts | 216° |
| 2026-04-19 05:26 | 44.87764 | -63.51874 | 462 ft | 20 kts | 215° |
| 2026-04-19 05:27 | 44.87648 | -63.51987 | 462 ft | 20 kts | 215° |
| 2026-04-19 05:27 | 44.87529 | -63.52104 | 464 ft | 21 kts | 215° |
| 2026-04-19 05:27 | 44.87410 | -63.52223 | 464 ft | 21 kts | 215° |
| 2026-04-19 05:27 | 44.87290 | -63.52342 | 464 ft | 21 kts | 215° |
| 2026-04-19 05:28 | 44.87169 | -63.52461 | 465 ft | 22 kts | 215° |
| 2026-04-19 05:28 | 44.87044 | -63.52584 | 465 ft | 22 kts | 215° |
| 2026-04-19 05:28 | 44.86917 | -63.52710 | 465 ft | 22 kts | 215° |
| 2026-04-19 05:28 | 44.86804 | -63.52854 | 465 ft | 22 kts | 230° |
| 2026-04-19 05:29 | 44.86729 | -63.52994 | 466 ft | 12 kts | 252° |
| 2026-04-19 05:29 | 44.86762 | -63.53101 | 466 ft | 13 kts | 307° |
| 2026-04-19 05:29 | 44.86827 | -63.53209 | 466 ft | 15 kts | 310° |
| 2026-04-19 05:29 | 44.86837 | -63.53322 | 463 ft | 7 kts | 236° |
| 2026-04-19 05:30 | 44.86804 | -63.53366 | 466 ft | 7 kts | 220° |
| 2026-04-19 05:30 | 44.86796 | -63.53375 | 466 ft | 0 kts | 220° |
| 2026-04-19 05:32 | 44.86797 | -63.53375 | 466 ft | 0 kts | 220° |
| 2026-04-19 05:37 | 44.86797 | -63.53374 | 466 ft | 0 kts | 220° |
| 2026-04-19 05:42 | 44.86798 | -63.53374 | 465 ft | 0 kts | 220° |
| 2026-04-19 05:44 | 44.86798 | -63.53373 | 465 ft | 0 kts | 220° |
| 2026-04-19 05:51 | 44.86799 | -63.53373 | 465 ft | 0 kts | 220° |
| 2026-04-19 05:52 | 44.86799 | -63.53372 | 465 ft | 0 kts | 220° |
| 2026-04-19 06:00 | 44.86799 | -63.53371 | 466 ft | 0 kts | 220° |
| 2026-04-19 06:01 | 44.86800 | -63.53371 | 466 ft | 0 kts | 220° |
| 2026-04-19 06:08 | 44.86800 | -63.53370 | 466 ft | 0 kts | 220° |
| 2026-04-19 06:10 | 44.86801 | -63.53370 | 466 ft | 0 kts | 220° |
| 2026-04-19 06:16 | 44.86801 | -63.53369 | 466 ft | 0 kts | 220° |